sensor_id;sensor_type;location;lat;lon;timestamp;P1;durP1;ratioP1;P2;durP2;ratioP2
19535;SDS011;9913;51.168;4.124;2024-02-21T00:00:20;10.90;;;5.97;;
19535;SDS011;9913;51.168;4.124;2024-02-21T00:02:48;14.93;;;6.70;;
19535;SDS011;9913;51.168;4.124;2024-02-21T00:05:16;15.73;;;6.33;;
19535;SDS011;9913;51.168;4.124;2024-02-21T00:07:45;9.83;;;5.77;;
19535;SDS011;9913;51.168;4.124;2024-02-21T00:10:13;12.93;;;5.80;;
19535;SDS011;9913;51.168;4.124;2024-02-21T00:12:41;19.40;;;6.17;;
19535;SDS011;9913;51.168;4.124;2024-02-21T00:15:11;11.60;;;5.53;;
19535;SDS011;9913;51.168;4.124;2024-02-21T00:17:39;10.40;;;6.10;;
19535;SDS011;9913;51.168;4.124;2024-02-21T00:20:08;14.67;;;6.50;;
19535;SDS011;9913;51.168;4.124;2024-02-21T00:22:37;11.90;;;6.17;;
19535;SDS011;9913;51.168;4.124;2024-02-21T00:25:06;14.30;;;6.53;;
19535;SDS011;9913;51.168;4.124;2024-02-21T00:27:35;15.27;;;5.33;;
19535;SDS011;9913;51.168;4.124;2024-02-21T00:30:03;15.23;;;5.90;;
19535;SDS011;9913;51.168;4.124;2024-02-21T00:32:33;13.90;;;6.10;;
19535;SDS011;9913;51.168;4.124;2024-02-21T00:35:02;14.00;;;6.77;;
19535;SDS011;9913;51.168;4.124;2024-02-21T00:37:31;12.23;;;6.23;;
19535;SDS011;9913;51.168;4.124;2024-02-21T00:39:59;13.77;;;6.60;;
19535;SDS011;9913;51.168;4.124;2024-02-21T00:42:27;15.10;;;6.97;;
19535;SDS011;9913;51.168;4.124;2024-02-21T00:44:56;14.67;;;7.23;;
19535;SDS011;9913;51.168;4.124;2024-02-21T00:47:24;13.60;;;6.90;;
19535;SDS011;9913;51.168;4.124;2024-02-21T00:49:54;14.67;;;6.57;;
19535;SDS011;9913;51.168;4.124;2024-02-21T00:52:23;13.10;;;6.53;;
19535;SDS011;9913;51.168;4.124;2024-02-21T00:54:51;13.30;;;6.90;;
19535;SDS011;9913;51.168;4.124;2024-02-21T00:57:20;18.33;;;7.27;;
19535;SDS011;9913;51.168;4.124;2024-02-21T00:59:50;15.63;;;6.83;;
19535;SDS011;9913;51.168;4.124;2024-02-21T01:02:18;14.17;;;7.63;;
19535;SDS011;9913;51.168;4.124;2024-02-21T01:04:47;16.33;;;7.13;;
19535;SDS011;9913;51.168;4.124;2024-02-21T01:07:16;13.53;;;6.67;;
19535;SDS011;9913;51.168;4.124;2024-02-21T01:09:45;17.23;;;7.87;;
19535;SDS011;9913;51.168;4.124;2024-02-21T01:12:13;13.43;;;6.80;;
19535;SDS011;9913;51.168;4.124;2024-02-21T01:14:41;17.67;;;7.40;;
19535;SDS011;9913;51.168;4.124;2024-02-21T01:17:10;15.63;;;7.13;;
19535;SDS011;9913;51.168;4.124;2024-02-21T01:19:38;14.53;;;6.43;;
19535;SDS011;9913;51.168;4.124;2024-02-21T01:22:06;14.10;;;6.73;;
19535;SDS011;9913;51.168;4.124;2024-02-21T01:24:40;13.77;;;6.90;;
19535;SDS011;9913;51.168;4.124;2024-02-21T01:27:08;13.60;;;6.20;;
19535;SDS011;9913;51.168;4.124;2024-02-21T01:29:36;18.70;;;8.07;;
19535;SDS011;9913;51.168;4.124;2024-02-21T01:32:05;14.97;;;7.20;;
19535;SDS011;9913;51.168;4.124;2024-02-21T01:34:33;13.67;;;6.50;;
19535;SDS011;9913;51.168;4.124;2024-02-21T01:37:02;11.80;;;6.87;;
19535;SDS011;9913;51.168;4.124;2024-02-21T01:39:31;12.93;;;6.60;;
19535;SDS011;9913;51.168;4.124;2024-02-21T01:42:01;14.93;;;6.70;;
19535;SDS011;9913;51.168;4.124;2024-02-21T01:44:29;13.80;;;6.50;;
19535;SDS011;9913;51.168;4.124;2024-02-21T01:46:58;13.13;;;6.80;;
19535;SDS011;9913;51.168;4.124;2024-02-21T01:49:26;10.23;;;6.20;;
19535;SDS011;9913;51.168;4.124;2024-02-21T01:51:55;16.93;;;7.00;;
19535;SDS011;9913;51.168;4.124;2024-02-21T01:54:23;19.00;;;6.67;;
19535;SDS011;9913;51.168;4.124;2024-02-21T01:56:55;12.87;;;6.63;;
19535;SDS011;9913;51.168;4.124;2024-02-21T01:59:25;14.93;;;6.67;;
19535;SDS011;9913;51.168;4.124;2024-02-21T02:01:54;15.20;;;6.47;;
19535;SDS011;9913;51.168;4.124;2024-02-21T02:04:24;15.43;;;6.30;;
19535;SDS011;9913;51.168;4.124;2024-02-21T02:06:54;13.83;;;6.73;;
19535;SDS011;9913;51.168;4.124;2024-02-21T02:09:22;11.47;;;6.37;;
19535;SDS011;9913;51.168;4.124;2024-02-21T02:11:51;14.90;;;6.67;;
19535;SDS011;9913;51.168;4.124;2024-02-21T02:14:19;15.30;;;6.80;;
19535;SDS011;9913;51.168;4.124;2024-02-21T02:16:49;15.30;;;7.07;;
19535;SDS011;9913;51.168;4.124;2024-02-21T02:19:17;12.40;;;6.67;;
19535;SDS011;9913;51.168;4.124;2024-02-21T02:21:46;17.80;;;8.40;;
19535;SDS011;9913;51.168;4.124;2024-02-21T02:24:26;19.83;;;9.17;;
19535;SDS011;9913;51.168;4.124;2024-02-21T02:26:55;18.10;;;8.67;;
19535;SDS011;9913;51.168;4.124;2024-02-21T02:29:25;19.93;;;9.23;;
19535;SDS011;9913;51.168;4.124;2024-02-21T02:31:53;23.07;;;8.80;;
19535;SDS011;9913;51.168;4.124;2024-02-21T02:34:22;20.73;;;9.70;;
19535;SDS011;9913;51.168;4.124;2024-02-21T02:36:50;20.20;;;8.63;;
19535;SDS011;9913;51.168;4.124;2024-02-21T02:39:19;18.47;;;8.80;;
19535;SDS011;9913;51.168;4.124;2024-02-21T02:41:48;17.93;;;9.90;;
19535;SDS011;9913;51.168;4.124;2024-02-21T02:44:17;18.83;;;9.60;;
19535;SDS011;9913;51.168;4.124;2024-02-21T02:46:45;19.57;;;9.30;;
19535;SDS011;9913;51.168;4.124;2024-02-21T02:49:13;21.17;;;10.40;;
19535;SDS011;9913;51.168;4.124;2024-02-21T02:51:42;25.30;;;10.00;;
19535;SDS011;9913;51.168;4.124;2024-02-21T02:54:10;22.00;;;9.33;;
19535;SDS011;9913;51.168;4.124;2024-02-21T02:56:39;26.80;;;10.07;;
19535;SDS011;9913;51.168;4.124;2024-02-21T02:59:09;17.60;;;9.27;;
19535;SDS011;9913;51.168;4.124;2024-02-21T03:01:37;28.40;;;11.53;;
19535;SDS011;9913;51.168;4.124;2024-02-21T03:04:06;17.43;;;8.43;;
19535;SDS011;9913;51.168;4.124;2024-02-21T03:06:34;21.40;;;9.60;;
19535;SDS011;9913;51.168;4.124;2024-02-21T03:09:03;21.83;;;10.33;;
19535;SDS011;9913;51.168;4.124;2024-02-21T03:11:35;22.57;;;10.37;;
19535;SDS011;9913;51.168;4.124;2024-02-21T03:14:09;28.87;;;11.30;;
19535;SDS011;9913;51.168;4.124;2024-02-21T03:16:38;16.77;;;9.97;;
19535;SDS011;9913;51.168;4.124;2024-02-21T03:19:08;23.30;;;9.53;;
19535;SDS011;9913;51.168;4.124;2024-02-21T03:21:36;20.93;;;9.50;;
19535;SDS011;9913;51.168;4.124;2024-02-21T03:24:05;21.83;;;10.57;;
19535;SDS011;9913;51.168;4.124;2024-02-21T03:26:33;19.90;;;10.83;;
19535;SDS011;9913;51.168;4.124;2024-02-21T03:29:03;20.53;;;10.33;;
19535;SDS011;9913;51.168;4.124;2024-02-21T03:31:33;24.20;;;10.20;;
19535;SDS011;9913;51.168;4.124;2024-02-21T03:34:01;20.63;;;10.07;;
19535;SDS011;9913;51.168;4.124;2024-02-21T03:36:30;22.90;;;10.60;;
19535;SDS011;9913;51.168;4.124;2024-02-21T03:38:58;18.87;;;10.00;;
19535;SDS011;9913;51.168;4.124;2024-02-21T03:41:26;19.60;;;11.17;;
19535;SDS011;9913;51.168;4.124;2024-02-21T03:43:55;19.67;;;9.23;;
19535;SDS011;9913;51.168;4.124;2024-02-21T03:46:23;18.20;;;9.63;;
19535;SDS011;9913;51.168;4.124;2024-02-21T03:48:54;25.10;;;11.23;;
19535;SDS011;9913;51.168;4.124;2024-02-21T03:51:22;23.37;;;11.80;;
19535;SDS011;9913;51.168;4.124;2024-02-21T03:53:50;22.20;;;10.50;;
19535;SDS011;9913;51.168;4.124;2024-02-21T03:56:19;21.63;;;9.90;;
19535;SDS011;9913;51.168;4.124;2024-02-21T03:58:47;18.47;;;10.13;;
19535;SDS011;9913;51.168;4.124;2024-02-21T04:01:15;22.50;;;10.57;;
19535;SDS011;9913;51.168;4.124;2024-02-21T04:03:44;18.27;;;10.37;;
19535;SDS011;9913;51.168;4.124;2024-02-21T04:06:14;20.77;;;9.40;;
19535;SDS011;9913;51.168;4.124;2024-02-21T04:08:42;21.27;;;10.63;;
19535;SDS011;9913;51.168;4.124;2024-02-21T04:11:10;24.20;;;10.20;;
19535;SDS011;9913;51.168;4.124;2024-02-21T04:13:39;14.93;;;8.83;;
19535;SDS011;9913;51.168;4.124;2024-02-21T04:16:07;19.27;;;8.90;;
19535;SDS011;9913;51.168;4.124;2024-02-21T04:18:36;23.77;;;11.17;;
19535;SDS011;9913;51.168;4.124;2024-02-21T04:21:04;23.50;;;9.90;;
19535;SDS011;9913;51.168;4.124;2024-02-21T04:23:34;25.90;;;10.43;;
19535;SDS011;9913;51.168;4.124;2024-02-21T04:26:02;17.77;;;10.33;;
19535;SDS011;9913;51.168;4.124;2024-02-21T04:28:31;15.83;;;9.67;;
19535;SDS011;9913;51.168;4.124;2024-02-21T04:30:59;18.23;;;9.93;;
19535;SDS011;9913;51.168;4.124;2024-02-21T04:33:27;20.10;;;11.73;;
19535;SDS011;9913;51.168;4.124;2024-02-21T04:35:55;21.40;;;11.10;;
19535;SDS011;9913;51.168;4.124;2024-02-21T04:38:25;22.07;;;10.17;;
19535;SDS011;9913;51.168;4.124;2024-02-21T04:40:56;17.63;;;9.60;;
19535;SDS011;9913;51.168;4.124;2024-02-21T04:43:25;22.33;;;10.80;;
19535;SDS011;9913;51.168;4.124;2024-02-21T04:45:54;21.33;;;10.40;;
19535;SDS011;9913;51.168;4.124;2024-02-21T04:48:22;19.73;;;10.13;;
19535;SDS011;9913;51.168;4.124;2024-02-21T04:50:50;24.30;;;10.63;;
19535;SDS011;9913;51.168;4.124;2024-02-21T04:53:18;19.97;;;10.03;;
19535;SDS011;9913;51.168;4.124;2024-02-21T04:55:47;22.47;;;11.30;;
19535;SDS011;9913;51.168;4.124;2024-02-21T04:58:16;25.17;;;10.83;;
19535;SDS011;9913;51.168;4.124;2024-02-21T05:00:45;21.70;;;10.33;;
19535;SDS011;9913;51.168;4.124;2024-02-21T05:03:13;20.23;;;11.03;;
19535;SDS011;9913;51.168;4.124;2024-02-21T05:05:42;23.80;;;11.00;;
19535;SDS011;9913;51.168;4.124;2024-02-21T05:08:10;23.23;;;10.40;;
19535;SDS011;9913;51.168;4.124;2024-02-21T05:10:39;25.63;;;11.33;;
19535;SDS011;9913;51.168;4.124;2024-02-21T05:13:07;19.07;;;10.27;;
19535;SDS011;9913;51.168;4.124;2024-02-21T05:15:38;19.77;;;10.50;;
19535;SDS011;9913;51.168;4.124;2024-02-21T05:18:06;21.47;;;11.27;;
19535;SDS011;9913;51.168;4.124;2024-02-21T05:20:35;20.00;;;10.53;;
19535;SDS011;9913;51.168;4.124;2024-02-21T05:23:03;22.20;;;11.60;;
19535;SDS011;9913;51.168;4.124;2024-02-21T05:25:32;20.83;;;11.30;;
19535;SDS011;9913;51.168;4.124;2024-02-21T05:28:00;20.93;;;10.77;;
19535;SDS011;9913;51.168;4.124;2024-02-21T05:30:30;22.43;;;10.47;;
19535;SDS011;9913;51.168;4.124;2024-02-21T05:33:03;19.13;;;9.77;;
19535;SDS011;9913;51.168;4.124;2024-02-21T05:35:32;21.00;;;11.63;;
19535;SDS011;9913;51.168;4.124;2024-02-21T05:38:01;22.93;;;12.70;;
19535;SDS011;9913;51.168;4.124;2024-02-21T05:40:32;23.97;;;11.17;;
19535;SDS011;9913;51.168;4.124;2024-02-21T05:43:00;19.20;;;10.90;;
19535;SDS011;9913;51.168;4.124;2024-02-21T05:45:29;25.27;;;11.07;;
19535;SDS011;9913;51.168;4.124;2024-02-21T05:47:57;20.07;;;11.07;;
19535;SDS011;9913;51.168;4.124;2024-02-21T05:50:27;23.27;;;12.30;;
19535;SDS011;9913;51.168;4.124;2024-02-21T05:52:55;19.83;;;10.73;;
19535;SDS011;9913;51.168;4.124;2024-02-21T05:55:23;24.33;;;10.97;;
19535;SDS011;9913;51.168;4.124;2024-02-21T05:57:53;22.40;;;11.03;;
19535;SDS011;9913;51.168;4.124;2024-02-21T06:00:21;19.30;;;11.33;;
19535;SDS011;9913;51.168;4.124;2024-02-21T06:02:50;26.23;;;11.10;;
19535;SDS011;9913;51.168;4.124;2024-02-21T06:05:18;17.00;;;10.03;;
19535;SDS011;9913;51.168;4.124;2024-02-21T06:07:48;24.27;;;12.20;;
19535;SDS011;9913;51.168;4.124;2024-02-21T06:10:16;22.37;;;11.17;;
19535;SDS011;9913;51.168;4.124;2024-02-21T06:12:45;26.10;;;12.33;;
19535;SDS011;9913;51.168;4.124;2024-02-21T06:15:13;20.67;;;11.30;;
19535;SDS011;9913;51.168;4.124;2024-02-21T06:17:42;20.03;;;10.90;;
19535;SDS011;9913;51.168;4.124;2024-02-21T06:20:10;19.80;;;11.13;;
19535;SDS011;9913;51.168;4.124;2024-02-21T06:22:39;21.03;;;10.73;;
19535;SDS011;9913;51.168;4.124;2024-02-21T06:25:09;27.23;;;13.60;;
19535;SDS011;9913;51.168;4.124;2024-02-21T06:27:37;22.33;;;12.40;;
19535;SDS011;9913;51.168;4.124;2024-02-21T06:30:06;25.83;;;13.50;;
19535;SDS011;9913;51.168;4.124;2024-02-21T06:32:35;19.80;;;10.90;;
19535;SDS011;9913;51.168;4.124;2024-02-21T06:35:05;18.47;;;10.93;;
19535;SDS011;9913;51.168;4.124;2024-02-21T06:37:34;21.33;;;12.20;;
19535;SDS011;9913;51.168;4.124;2024-02-21T06:40:02;19.97;;;11.07;;
19535;SDS011;9913;51.168;4.124;2024-02-21T06:42:32;19.27;;;10.47;;
19535;SDS011;9913;51.168;4.124;2024-02-21T06:45:00;18.90;;;12.10;;
19535;SDS011;9913;51.168;4.124;2024-02-21T06:47:29;21.60;;;12.33;;
19535;SDS011;9913;51.168;4.124;2024-02-21T06:49:57;17.90;;;12.13;;
19535;SDS011;9913;51.168;4.124;2024-02-21T06:52:26;20.70;;;12.23;;
19535;SDS011;9913;51.168;4.124;2024-02-21T06:54:54;20.00;;;11.93;;
19535;SDS011;9913;51.168;4.124;2024-02-21T06:57:23;21.30;;;12.93;;
19535;SDS011;9913;51.168;4.124;2024-02-21T06:59:52;21.50;;;11.90;;
19535;SDS011;9913;51.168;4.124;2024-02-21T07:02:21;23.87;;;11.93;;
19535;SDS011;9913;51.168;4.124;2024-02-21T07:04:49;21.60;;;12.47;;
19535;SDS011;9913;51.168;4.124;2024-02-21T07:07:18;19.03;;;11.53;;
19535;SDS011;9913;51.168;4.124;2024-02-21T07:09:46;19.60;;;11.43;;
19535;SDS011;9913;51.168;4.124;2024-02-21T07:12:15;20.57;;;13.67;;
19535;SDS011;9913;51.168;4.124;2024-02-21T07:14:44;20.03;;;12.20;;
19535;SDS011;9913;51.168;4.124;2024-02-21T07:17:31;21.37;;;13.13;;
19535;SDS011;9913;51.168;4.124;2024-02-21T07:20:00;19.87;;;12.00;;
19535;SDS011;9913;51.168;4.124;2024-02-21T07:22:28;21.23;;;11.60;;
19535;SDS011;9913;51.168;4.124;2024-02-21T07:24:57;16.07;;;10.37;;
19535;SDS011;9913;51.168;4.124;2024-02-21T07:27:28;17.27;;;10.60;;
19535;SDS011;9913;51.168;4.124;2024-02-21T07:29:58;18.43;;;11.07;;
19535;SDS011;9913;51.168;4.124;2024-02-21T07:32:27;21.23;;;11.27;;
19535;SDS011;9913;51.168;4.124;2024-02-21T07:34:56;18.77;;;10.30;;
19535;SDS011;9913;51.168;4.124;2024-02-21T07:37:25;19.03;;;10.43;;
19535;SDS011;9913;51.168;4.124;2024-02-21T07:39:57;17.77;;;10.40;;
19535;SDS011;9913;51.168;4.124;2024-02-21T07:42:25;17.47;;;10.57;;
19535;SDS011;9913;51.168;4.124;2024-02-21T07:44:53;18.27;;;9.13;;
19535;SDS011;9913;51.168;4.124;2024-02-21T07:47:22;14.33;;;9.77;;
19535;SDS011;9913;51.168;4.124;2024-02-21T07:49:51;15.53;;;10.33;;
19535;SDS011;9913;51.168;4.124;2024-02-21T07:52:21;14.80;;;9.30;;
19535;SDS011;9913;51.168;4.124;2024-02-21T07:54:49;14.70;;;9.57;;
19535;SDS011;9913;51.168;4.124;2024-02-21T07:57:17;15.23;;;9.63;;
19535;SDS011;9913;51.168;4.124;2024-02-21T07:59:46;16.37;;;9.80;;
19535;SDS011;9913;51.168;4.124;2024-02-21T08:02:14;18.47;;;10.80;;
19535;SDS011;9913;51.168;4.124;2024-02-21T08:04:43;13.97;;;9.70;;
19535;SDS011;9913;51.168;4.124;2024-02-21T08:07:11;13.70;;;10.17;;
19535;SDS011;9913;51.168;4.124;2024-02-21T08:09:41;17.03;;;10.30;;
19535;SDS011;9913;51.168;4.124;2024-02-21T08:12:09;17.57;;;11.00;;
19535;SDS011;9913;51.168;4.124;2024-02-21T08:14:37;18.43;;;11.00;;
19535;SDS011;9913;51.168;4.124;2024-02-21T08:17:06;15.90;;;10.17;;
19535;SDS011;9913;51.168;4.124;2024-02-21T08:19:34;15.70;;;10.20;;
19535;SDS011;9913;51.168;4.124;2024-02-21T08:22:02;14.20;;;9.30;;
19535;SDS011;9913;51.168;4.124;2024-02-21T08:24:31;14.73;;;9.90;;
19535;SDS011;9913;51.168;4.124;2024-02-21T08:27:01;14.47;;;9.00;;
19535;SDS011;9913;51.168;4.124;2024-02-21T08:29:29;12.87;;;8.57;;
19535;SDS011;9913;51.168;4.124;2024-02-21T08:31:57;15.97;;;9.67;;
19535;SDS011;9913;51.168;4.124;2024-02-21T08:34:26;16.03;;;9.70;;
19535;SDS011;9913;51.168;4.124;2024-02-21T08:36:56;17.10;;;10.13;;
19535;SDS011;9913;51.168;4.124;2024-02-21T08:39:24;15.87;;;9.37;;
19535;SDS011;9913;51.168;4.124;2024-02-21T08:41:55;13.43;;;9.67;;
19535;SDS011;9913;51.168;4.124;2024-02-21T08:44:28;15.47;;;10.83;;
19535;SDS011;9913;51.168;4.124;2024-02-21T08:46:56;19.43;;;12.47;;
19535;SDS011;9913;51.168;4.124;2024-02-21T08:49:25;17.50;;;10.47;;
19535;SDS011;9913;51.168;4.124;2024-02-21T08:52:00;16.17;;;10.97;;
19535;SDS011;9913;51.168;4.124;2024-02-21T08:54:29;16.10;;;10.87;;
19535;SDS011;9913;51.168;4.124;2024-02-21T08:56:57;21.47;;;11.63;;
19535;SDS011;9913;51.168;4.124;2024-02-21T08:59:27;18.00;;;11.13;;
19535;SDS011;9913;51.168;4.124;2024-02-21T09:01:56;19.80;;;11.53;;
19535;SDS011;9913;51.168;4.124;2024-02-21T09:04:24;14.33;;;9.77;;
19535;SDS011;9913;51.168;4.124;2024-02-21T09:06:53;19.00;;;10.47;;
19535;SDS011;9913;51.168;4.124;2024-02-21T09:09:21;16.97;;;11.50;;
19535;SDS011;9913;51.168;4.124;2024-02-21T09:11:52;18.40;;;11.17;;
19535;SDS011;9913;51.168;4.124;2024-02-21T09:14:21;16.77;;;10.70;;
19535;SDS011;9913;51.168;4.124;2024-02-21T09:16:50;17.53;;;10.57;;
19535;SDS011;9913;51.168;4.124;2024-02-21T09:19:19;14.67;;;10.17;;
19535;SDS011;9913;51.168;4.124;2024-02-21T09:21:48;16.90;;;10.27;;
19535;SDS011;9913;51.168;4.124;2024-02-21T09:24:17;18.80;;;10.07;;
19535;SDS011;9913;51.168;4.124;2024-02-21T09:26:45;16.17;;;10.13;;
19535;SDS011;9913;51.168;4.124;2024-02-21T09:29:14;14.77;;;9.37;;
19535;SDS011;9913;51.168;4.124;2024-02-21T09:31:44;14.43;;;9.63;;
19535;SDS011;9913;51.168;4.124;2024-02-21T09:34:13;14.57;;;9.77;;
19535;SDS011;9913;51.168;4.124;2024-02-21T09:36:42;15.37;;;10.30;;
19535;SDS011;9913;51.168;4.124;2024-02-21T09:39:11;14.10;;;9.10;;
19535;SDS011;9913;51.168;4.124;2024-02-21T09:41:42;15.47;;;8.77;;
19535;SDS011;9913;51.168;4.124;2024-02-21T09:44:15;14.43;;;8.97;;
19535;SDS011;9913;51.168;4.124;2024-02-21T09:46:49;16.67;;;8.93;;
19535;SDS011;9913;51.168;4.124;2024-02-21T09:49:29;13.93;;;8.70;;
19535;SDS011;9913;51.168;4.124;2024-02-21T09:52:00;12.20;;;7.93;;
19535;SDS011;9913;51.168;4.124;2024-02-21T09:54:30;14.27;;;8.13;;
19535;SDS011;9913;51.168;4.124;2024-02-21T09:57:01;14.90;;;8.07;;
19535;SDS011;9913;51.168;4.124;2024-02-21T09:59:30;14.70;;;7.73;;
19535;SDS011;9913;51.168;4.124;2024-02-21T10:02:00;12.23;;;7.47;;
19535;SDS011;9913;51.168;4.124;2024-02-21T10:04:30;13.10;;;7.70;;
19535;SDS011;9913;51.168;4.124;2024-02-21T10:07:00;12.27;;;7.27;;
19535;SDS011;9913;51.168;4.124;2024-02-21T10:09:28;11.57;;;7.40;;
19535;SDS011;9913;51.168;4.124;2024-02-21T10:12:07;11.60;;;7.03;;
19535;SDS011;9913;51.168;4.124;2024-02-21T10:14:37;12.87;;;7.33;;
19535;SDS011;9913;51.168;4.124;2024-02-21T10:17:05;12.20;;;6.17;;
19535;SDS011;9913;51.168;4.124;2024-02-21T10:19:39;11.77;;;6.43;;
19535;SDS011;9913;51.168;4.124;2024-02-21T10:22:08;13.93;;;6.67;;
19535;SDS011;9913;51.168;4.124;2024-02-21T10:24:37;11.53;;;6.47;;
19535;SDS011;9913;51.168;4.124;2024-02-21T10:27:08;10.53;;;5.60;;
19535;SDS011;9913;51.168;4.124;2024-02-21T10:29:39;11.17;;;6.67;;
19535;SDS011;9913;51.168;4.124;2024-02-21T10:32:09;12.63;;;6.73;;
19535;SDS011;9913;51.168;4.124;2024-02-21T10:34:41;8.23;;;5.70;;
19535;SDS011;9913;51.168;4.124;2024-02-21T10:37:11;12.97;;;6.17;;
19535;SDS011;9913;51.168;4.124;2024-02-21T10:39:40;11.47;;;6.37;;
19535;SDS011;9913;51.168;4.124;2024-02-21T10:42:11;14.23;;;6.23;;
19535;SDS011;9913;51.168;4.124;2024-02-21T10:44:40;12.50;;;5.80;;
19535;SDS011;9913;51.168;4.124;2024-02-21T10:47:10;10.27;;;6.13;;
19535;SDS011;9913;51.168;4.124;2024-02-21T10:49:41;11.27;;;6.13;;
19535;SDS011;9913;51.168;4.124;2024-02-21T10:52:15;13.03;;;6.10;;
19535;SDS011;9913;51.168;4.124;2024-02-21T10:54:52;9.97;;;6.13;;
19535;SDS011;9913;51.168;4.124;2024-02-21T10:57:24;11.40;;;5.37;;
19535;SDS011;9913;51.168;4.124;2024-02-21T10:59:55;9.83;;;5.90;;
19535;SDS011;9913;51.168;4.124;2024-02-21T11:02:26;7.37;;;5.43;;
19535;SDS011;9913;51.168;4.124;2024-02-21T11:04:59;10.70;;;5.40;;
19535;SDS011;9913;51.168;4.124;2024-02-21T11:07:31;11.17;;;5.77;;
19535;SDS011;9913;51.168;4.124;2024-02-21T11:10:01;9.90;;;5.57;;
19535;SDS011;9913;51.168;4.124;2024-02-21T11:12:32;9.77;;;5.60;;
19535;SDS011;9913;51.168;4.124;2024-02-21T11:15:04;8.47;;;4.67;;
19535;SDS011;9913;51.168;4.124;2024-02-21T11:17:33;8.37;;;5.07;;
19535;SDS011;9913;51.168;4.124;2024-02-21T11:20:17;10.83;;;5.60;;
19535;SDS011;9913;51.168;4.124;2024-02-21T11:22:46;8.70;;;5.23;;
19535;SDS011;9913;51.168;4.124;2024-02-21T11:25:21;10.23;;;5.23;;
19535;SDS011;9913;51.168;4.124;2024-02-21T11:27:50;8.70;;;4.70;;
19535;SDS011;9913;51.168;4.124;2024-02-21T11:30:19;10.37;;;5.37;;
19535;SDS011;9913;51.168;4.124;2024-02-21T11:32:59;8.47;;;5.07;;
19535;SDS011;9913;51.168;4.124;2024-02-21T11:35:33;8.60;;;4.97;;
19535;SDS011;9913;51.168;4.124;2024-02-21T11:38:08;9.43;;;5.17;;
19535;SDS011;9913;51.168;4.124;2024-02-21T11:40:43;8.83;;;4.80;;
19535;SDS011;9913;51.168;4.124;2024-02-21T11:43:13;9.70;;;5.30;;
19535;SDS011;9913;51.168;4.124;2024-02-21T11:45:41;10.63;;;5.27;;
19535;SDS011;9913;51.168;4.124;2024-02-21T11:48:10;10.70;;;5.20;;
19535;SDS011;9913;51.168;4.124;2024-02-21T11:50:39;9.50;;;5.27;;
19535;SDS011;9913;51.168;4.124;2024-02-21T11:53:08;9.27;;;4.93;;
19535;SDS011;9913;51.168;4.124;2024-02-21T11:55:37;7.70;;;5.10;;
19535;SDS011;9913;51.168;4.124;2024-02-21T11:58:06;8.30;;;4.47;;
19535;SDS011;9913;51.168;4.124;2024-02-21T12:00:34;8.43;;;5.00;;
19535;SDS011;9913;51.168;4.124;2024-02-21T12:03:03;9.27;;;5.00;;
19535;SDS011;9913;51.168;4.124;2024-02-21T12:05:32;9.93;;;5.00;;
19535;SDS011;9913;51.168;4.124;2024-02-21T12:08:03;9.73;;;5.07;;
19535;SDS011;9913;51.168;4.124;2024-02-21T12:10:32;7.37;;;4.80;;
19535;SDS011;9913;51.168;4.124;2024-02-21T12:13:06;8.97;;;5.17;;
19535;SDS011;9913;51.168;4.124;2024-02-21T12:15:35;7.87;;;5.20;;
19535;SDS011;9913;51.168;4.124;2024-02-21T12:18:03;8.63;;;4.90;;
19535;SDS011;9913;51.168;4.124;2024-02-21T12:20:32;7.17;;;4.70;;
19535;SDS011;9913;51.168;4.124;2024-02-21T12:23:08;8.47;;;5.20;;
19535;SDS011;9913;51.168;4.124;2024-02-21T12:25:37;8.97;;;5.77;;
19535;SDS011;9913;51.168;4.124;2024-02-21T12:28:07;10.37;;;5.53;;
19535;SDS011;9913;51.168;4.124;2024-02-21T12:30:35;9.33;;;5.77;;
19535;SDS011;9913;51.168;4.124;2024-02-21T12:33:06;9.40;;;4.77;;
19535;SDS011;9913;51.168;4.124;2024-02-21T12:35:34;9.70;;;6.10;;
19535;SDS011;9913;51.168;4.124;2024-02-21T12:38:04;9.17;;;5.20;;
19535;SDS011;9913;51.168;4.124;2024-02-21T12:40:33;9.80;;;5.17;;
19535;SDS011;9913;51.168;4.124;2024-02-21T12:43:02;8.00;;;4.77;;
19535;SDS011;9913;51.168;4.124;2024-02-21T12:45:31;7.73;;;5.10;;
19535;SDS011;9913;51.168;4.124;2024-02-21T12:48:01;8.83;;;4.97;;
19535;SDS011;9913;51.168;4.124;2024-02-21T12:50:31;9.13;;;4.83;;
19535;SDS011;9913;51.168;4.124;2024-02-21T12:52:59;9.93;;;5.00;;
19535;SDS011;9913;51.168;4.124;2024-02-21T12:55:30;8.47;;;5.20;;
19535;SDS011;9913;51.168;4.124;2024-02-21T12:58:02;9.53;;;5.13;;
19535;SDS011;9913;51.168;4.124;2024-02-21T13:00:31;7.50;;;5.10;;
19535;SDS011;9913;51.168;4.124;2024-02-21T13:02:59;7.27;;;4.73;;
19535;SDS011;9913;51.168;4.124;2024-02-21T13:05:28;6.83;;;5.00;;
19535;SDS011;9913;51.168;4.124;2024-02-21T13:07:56;6.27;;;4.50;;
19535;SDS011;9913;51.168;4.124;2024-02-21T13:10:24;7.73;;;4.73;;
19535;SDS011;9913;51.168;4.124;2024-02-21T13:12:54;5.93;;;4.37;;
19535;SDS011;9913;51.168;4.124;2024-02-21T13:15:22;8.60;;;4.97;;
19535;SDS011;9913;51.168;4.124;2024-02-21T13:17:51;7.40;;;4.50;;
19535;SDS011;9913;51.168;4.124;2024-02-21T13:20:19;9.83;;;4.50;;
19535;SDS011;9913;51.168;4.124;2024-02-21T13:22:48;8.83;;;4.53;;
19535;SDS011;9913;51.168;4.124;2024-02-21T13:25:17;10.23;;;5.00;;
19535;SDS011;9913;51.168;4.124;2024-02-21T13:27:47;10.20;;;5.37;;
19535;SDS011;9913;51.168;4.124;2024-02-21T13:30:17;7.80;;;5.17;;
19535;SDS011;9913;51.168;4.124;2024-02-21T13:32:46;9.40;;;5.03;;
19535;SDS011;9913;51.168;4.124;2024-02-21T13:35:14;7.97;;;5.27;;
19535;SDS011;9913;51.168;4.124;2024-02-21T13:37:43;12.77;;;5.73;;
19535;SDS011;9913;51.168;4.124;2024-02-21T13:40:11;9.03;;;5.23;;
19535;SDS011;9913;51.168;4.124;2024-02-21T13:42:40;9.20;;;5.47;;
19535;SDS011;9913;51.168;4.124;2024-02-21T13:45:09;10.60;;;6.27;;
19535;SDS011;9913;51.168;4.124;2024-02-21T13:47:39;9.13;;;5.80;;
19535;SDS011;9913;51.168;4.124;2024-02-21T13:50:09;11.37;;;6.40;;
19535;SDS011;9913;51.168;4.124;2024-02-21T13:52:37;10.70;;;6.60;;
19535;SDS011;9913;51.168;4.124;2024-02-21T13:55:06;11.03;;;6.60;;
19535;SDS011;9913;51.168;4.124;2024-02-21T13:57:35;12.43;;;6.80;;
19535;SDS011;9913;51.168;4.124;2024-02-21T14:00:04;13.07;;;7.60;;
19535;SDS011;9913;51.168;4.124;2024-02-21T14:02:40;11.40;;;7.37;;
19535;SDS011;9913;51.168;4.124;2024-02-21T14:05:09;11.07;;;7.30;;
19535;SDS011;9913;51.168;4.124;2024-02-21T14:07:38;11.80;;;8.93;;
19535;SDS011;9913;51.168;4.124;2024-02-21T14:10:07;12.83;;;7.17;;
19535;SDS011;9913;51.168;4.124;2024-02-21T14:12:37;12.87;;;8.03;;
19535;SDS011;9913;51.168;4.124;2024-02-21T14:15:07;12.43;;;8.00;;
19535;SDS011;9913;51.168;4.124;2024-02-21T14:17:36;12.60;;;7.27;;
19535;SDS011;9913;51.168;4.124;2024-02-21T14:20:07;15.10;;;8.70;;
19535;SDS011;9913;51.168;4.124;2024-02-21T14:22:40;12.20;;;8.00;;
19535;SDS011;9913;51.168;4.124;2024-02-21T14:25:08;13.87;;;7.70;;
19535;SDS011;9913;51.168;4.124;2024-02-21T14:27:36;11.63;;;7.70;;
19535;SDS011;9913;51.168;4.124;2024-02-21T14:30:05;11.60;;;7.57;;
19535;SDS011;9913;51.168;4.124;2024-02-21T14:32:37;13.43;;;8.43;;
19535;SDS011;9913;51.168;4.124;2024-02-21T14:35:07;13.70;;;7.67;;
19535;SDS011;9913;51.168;4.124;2024-02-21T14:37:36;12.67;;;8.63;;
19535;SDS011;9913;51.168;4.124;2024-02-21T14:40:05;11.83;;;8.23;;
19535;SDS011;9913;51.168;4.124;2024-02-21T14:42:34;13.00;;;8.47;;
19535;SDS011;9913;51.168;4.124;2024-02-21T14:45:03;13.97;;;8.00;;
19535;SDS011;9913;51.168;4.124;2024-02-21T14:47:32;15.50;;;9.77;;
19535;SDS011;9913;51.168;4.124;2024-02-21T14:50:02;14.17;;;8.03;;
19535;SDS011;9913;51.168;4.124;2024-02-21T14:52:33;11.97;;;8.23;;
19535;SDS011;9913;51.168;4.124;2024-02-21T14:55:02;15.30;;;9.10;;
19535;SDS011;9913;51.168;4.124;2024-02-21T14:57:32;15.97;;;8.70;;